createdAt,value
2018-05-15T00:01:27.675Z,9.57
2018-05-15T00:03:55.685Z,8.40
2018-05-15T00:06:24.923Z,9.20
2018-05-15T00:08:53.243Z,9.60
2018-05-15T00:11:20.952Z,9.20
2018-05-15T00:13:49.112Z,8.17
2018-05-15T00:16:17.240Z,9.83
2018-05-15T00:18:45.361Z,9.53
2018-05-15T00:21:13.653Z,10.27
2018-05-15T00:23:41.977Z,10.30
2018-05-15T00:26:10.392Z,9.80
2018-05-15T00:28:38.287Z,9.97
2018-05-15T00:31:06.487Z,10.20
2018-05-15T00:33:34.677Z,9.90
2018-05-15T00:36:02.726Z,10.67
2018-05-15T00:38:31.298Z,9.20
2018-05-15T00:41:00.074Z,9.40
2018-05-15T00:43:27.853Z,10.00
2018-05-15T00:45:56.218Z,10.10
2018-05-15T00:48:24.309Z,9.70
2018-05-15T00:50:52.608Z,10.03
2018-05-15T00:53:20.939Z,10.27
2018-05-15T00:55:49.195Z,10.60
2018-05-15T00:58:16.998Z,11.53
2018-05-15T01:00:45.031Z,10.87
2018-05-15T01:03:13.595Z,10.20
2018-05-15T01:05:42.331Z,10.93
2018-05-15T01:08:10.333Z,10.77
2018-05-15T01:10:38.913Z,10.27
2018-05-15T01:13:07.666Z,10.40
2018-05-15T01:15:37.153Z,10.37
2018-05-15T01:18:06.322Z,10.47
2018-05-15T01:20:34.264Z,11.20
2018-05-15T01:23:02.911Z,10.30
2018-05-15T01:25:31.865Z,11.30
2018-05-15T01:27:59.661Z,11.90
2018-05-15T01:30:27.856Z,10.40
2018-05-15T01:32:56.701Z,11.07
2018-05-15T01:35:25.722Z,10.27
2018-05-15T01:37:53.681Z,12.10
2018-05-15T01:40:21.933Z,9.87
2018-05-15T01:42:50.114Z,11.03
2018-05-15T01:45:19.297Z,10.70
2018-05-15T01:47:47.580Z,11.20
2018-05-15T01:50:15.754Z,12.37
2018-05-15T01:52:43.841Z,9.93
2018-05-15T01:55:11.772Z,11.50
2018-05-15T01:57:41.265Z,11.30
2018-05-15T02:00:10.641Z,10.80
2018-05-15T02:02:38.647Z,11.40
2018-05-15T02:05:07.447Z,11.27
2018-05-15T02:07:35.847Z,10.93
2018-05-15T02:10:03.924Z,11.73
2018-05-15T02:12:32.889Z,10.30
2018-05-15T02:15:00.965Z,11.20
2018-05-15T02:17:29.840Z,12.20
2018-05-15T02:20:01.555Z,10.53
2018-05-15T02:22:29.675Z,10.90
2018-05-15T02:24:58.651Z,11.17
2018-05-15T02:27:28.363Z,12.03
2018-05-15T02:29:56.869Z,11.30
2018-05-15T02:32:25.216Z,11.40
2018-05-15T02:34:53.356Z,11.90
2018-05-15T02:37:21.532Z,11.73
2018-05-15T02:39:49.591Z,11.00
2018-05-15T02:42:18.075Z,10.57
2018-05-15T02:44:46.713Z,10.90
2018-05-15T02:47:14.718Z,9.77
2018-05-15T02:49:43.250Z,11.87
2018-05-15T02:52:11.892Z,11.40
2018-05-15T02:54:40.231Z,11.70
2018-05-15T02:57:08.905Z,11.70
2018-05-15T02:59:37.346Z,10.40
2018-05-15T03:02:05.031Z,10.23
2018-05-15T03:04:33.776Z,10.97
2018-05-15T03:07:01.627Z,12.47
2018-05-15T03:09:30.283Z,12.60
2018-05-15T03:11:58.777Z,10.87
2018-05-15T03:14:26.807Z,10.00
2018-05-15T03:16:55.439Z,12.87
2018-05-15T03:19:26.353Z,12.87
2018-05-15T03:21:54.874Z,12.33
2018-05-15T03:24:23.127Z,11.83
2018-05-15T03:26:51.862Z,12.37
2018-05-15T03:29:21.127Z,12.17
2018-05-15T03:31:49.759Z,11.43
2018-05-15T03:34:17.562Z,10.60
2018-05-15T03:36:45.824Z,11.83
2018-05-15T03:39:13.960Z,13.10
2018-05-15T03:41:44.024Z,12.80
2018-05-15T03:44:13.274Z,14.60
2018-05-15T03:46:42.451Z,10.77
2018-05-15T03:49:11.546Z,13.97
2018-05-15T03:51:39.683Z,13.30
2018-05-15T03:54:08.666Z,14.10
2018-05-15T03:56:37.497Z,12.67
2018-05-15T03:59:06.188Z,15.00
2018-05-15T04:01:46.921Z,11.23
2018-05-15T04:04:26.899Z,11.60
2018-05-15T04:07:06.870Z,11.23
2018-05-15T04:09:34.868Z,11.77
2018-05-15T04:12:03.885Z,12.47
2018-05-15T04:14:31.872Z,13.00
2018-05-15T04:17:00.498Z,10.23
2018-05-15T04:19:29.352Z,13.77
2018-05-15T04:21:57.754Z,13.47
2018-05-15T04:24:25.574Z,12.63
2018-05-15T04:26:54.851Z,12.57
2018-05-15T04:29:24.091Z,11.60
2018-05-15T04:31:52.731Z,13.53
2018-05-15T04:34:21.998Z,13.17
2018-05-15T04:36:50.422Z,11.50
2018-05-15T04:39:18.383Z,13.70
2018-05-15T04:41:46.607Z,13.30
2018-05-15T04:44:15.003Z,12.90
2018-05-15T04:46:42.809Z,10.90
2018-05-15T04:49:11.369Z,13.10
2018-05-15T04:51:40.069Z,13.63
2018-05-15T04:54:08.145Z,13.13
2018-05-15T04:56:36.519Z,13.30
2018-05-15T04:59:04.364Z,13.70
2018-05-15T05:01:32.570Z,13.37
2018-05-15T05:04:01.821Z,13.27
2018-05-15T05:06:30.305Z,12.00
2018-05-15T05:08:58.581Z,11.70
2018-05-15T05:11:27.193Z,11.53
2018-05-15T05:13:55.645Z,12.40
2018-05-15T05:16:24.154Z,13.33
2018-05-15T05:18:52.295Z,12.57
2018-05-15T05:21:20.437Z,12.47
2018-05-15T05:23:48.722Z,12.00
2018-05-15T05:26:17.146Z,12.20
2018-05-15T05:28:45.419Z,13.67
2018-05-15T05:31:13.677Z,11.43
2018-05-15T05:33:42.085Z,12.40
2018-05-15T05:36:10.335Z,12.37
2018-05-15T05:38:38.528Z,14.07
2018-05-15T05:41:06.919Z,13.57
2018-05-15T05:43:35.181Z,11.60
2018-05-15T05:46:03.338Z,14.30
2018-05-15T05:48:33.594Z,13.93
2018-05-15T05:51:02.270Z,12.30
2018-05-15T05:53:30.917Z,10.97
2018-05-15T05:56:01.423Z,10.63
2018-05-15T05:58:29.735Z,11.70
2018-05-15T06:00:59.055Z,10.60
2018-05-15T06:03:27.685Z,11.10
2018-05-15T06:05:55.747Z,11.37
2018-05-15T06:08:24.196Z,10.47
2018-05-15T06:10:52.156Z,9.40
2018-05-15T06:13:20.883Z,9.93
2018-05-15T06:15:48.947Z,11.20
2018-05-15T06:18:17.101Z,9.63
2018-05-15T06:20:46.321Z,9.77
2018-05-15T06:23:14.539Z,9.87
2018-05-15T06:25:43.403Z,9.70
2018-05-15T06:28:11.940Z,9.40
2018-05-15T06:30:39.924Z,9.40
2018-05-15T06:33:08.508Z,9.03
2018-05-15T06:35:36.472Z,9.60
2018-05-15T06:38:05.011Z,8.40
2018-05-15T06:40:33.389Z,9.27
2018-05-15T06:43:01.753Z,9.30
2018-05-15T06:45:29.334Z,8.37
2018-05-15T06:47:57.890Z,8.20
2018-05-15T06:50:25.939Z,8.67
2018-05-15T06:55:21.800Z,8.13
2018-05-15T06:57:50.175Z,8.20
2018-05-15T07:00:19.104Z,8.27
2018-05-15T07:02:47.225Z,8.53
2018-05-15T07:05:15.878Z,7.83
2018-05-15T07:07:43.529Z,8.83
2018-05-15T07:10:12.776Z,7.93
2018-05-15T07:12:41.643Z,8.50
2018-05-15T07:15:10.314Z,9.00
2018-05-15T07:17:39.368Z,8.40
2018-05-15T07:20:09.074Z,9.90
2018-05-15T07:22:38.154Z,8.77
2018-05-15T07:25:07.099Z,8.57
2018-05-15T07:27:36.375Z,8.70
2018-05-15T07:30:05.332Z,8.27
2018-05-15T07:32:35.353Z,9.07
2018-05-15T07:35:03.672Z,9.30
2018-05-15T07:37:32.171Z,8.07
2018-05-15T07:40:01.620Z,9.13
2018-05-15T07:42:31.525Z,8.00
2018-05-15T07:45:01.121Z,8.20
2018-05-15T07:47:31.200Z,7.50
2018-05-15T07:49:59.943Z,9.53
2018-05-15T07:52:30.732Z,8.60
2018-05-15T07:55:00.986Z,7.03
2018-05-15T07:57:30.218Z,8.40
2018-05-15T07:59:58.368Z,7.60
2018-05-15T08:02:28.252Z,6.63
2018-05-15T08:04:58.852Z,6.80
2018-05-15T08:07:28.923Z,7.30
2018-05-15T08:09:57.387Z,6.53
2018-05-15T08:12:27.836Z,7.50
2018-05-15T08:14:56.661Z,7.10
2018-05-15T08:17:27.469Z,6.57
2018-05-15T08:19:58.205Z,7.07
2018-05-15T08:22:27.620Z,6.27
2018-05-15T08:24:56.868Z,6.47
2018-05-15T08:27:25.113Z,6.00
2018-05-15T08:29:54.278Z,6.27
2018-05-15T08:32:22.620Z,6.20
2018-05-15T08:34:50.586Z,6.47
2018-05-15T08:37:19.069Z,6.30
2018-05-15T08:39:47.526Z,6.83
2018-05-15T08:42:15.958Z,6.73
2018-05-15T08:44:45.324Z,7.40
2018-05-15T08:47:14.106Z,8.60
2018-05-15T08:49:42.529Z,6.57
2018-05-15T08:52:11.121Z,6.47
2018-05-15T08:54:39.885Z,6.43
2018-05-15T08:57:07.899Z,6.17
2018-05-15T08:59:37.446Z,6.65
2018-05-15T09:02:06.163Z,6.40
2018-05-15T09:04:34.465Z,6.35
2018-05-15T09:07:02.433Z,4.90
2018-05-15T09:09:30.405Z,5.50
2018-05-15T09:11:58.754Z,5.77
2018-05-15T09:14:27.040Z,5.83
2018-05-15T09:16:55.377Z,6.70
2018-05-15T09:19:23.494Z,7.00
2018-05-15T09:21:51.750Z,7.13
2018-05-15T09:24:19.909Z,6.00
2018-05-15T09:26:48.727Z,6.40
2018-05-15T09:29:17.489Z,5.90
2018-05-15T09:31:48.061Z,7.07
2018-05-15T09:34:16.584Z,6.37
2018-05-15T09:36:45.764Z,7.33
2018-05-15T09:39:15.150Z,7.20
2018-05-15T09:41:43.233Z,8.10
2018-05-15T09:44:11.403Z,6.80
2018-05-15T09:46:39.825Z,8.00
2018-05-15T09:49:09.165Z,5.70
2018-05-15T09:51:36.945Z,6.87
2018-05-15T09:54:05.642Z,6.63
2018-05-15T09:56:34.857Z,6.67
2018-05-15T09:59:02.880Z,7.07
2018-05-15T10:01:30.996Z,6.80
2018-05-15T10:03:59.523Z,6.40
2018-05-15T10:06:28.082Z,7.70
2018-05-15T10:08:56.701Z,7.50
2018-05-15T10:11:25.007Z,6.50
2018-05-15T10:13:53.121Z,6.47
2018-05-15T10:16:22.687Z,8.27
2018-05-15T10:18:50.688Z,7.40
2018-05-15T10:21:19.232Z,9.40
2018-05-15T10:23:47.765Z,6.93
2018-05-15T10:26:17.676Z,6.47
2018-05-15T10:28:46.420Z,7.70
2018-05-15T10:31:14.931Z,6.53
2018-05-15T10:33:43.715Z,7.17
2018-05-15T10:36:11.921Z,7.60
2018-05-15T10:38:40.165Z,7.33
2018-05-15T10:41:08.565Z,8.30
2018-05-15T10:43:38.314Z,8.47
2018-05-15T10:46:06.272Z,8.00
2018-05-15T10:48:35.451Z,8.50
2018-05-15T10:51:03.446Z,7.70
2018-05-15T10:53:32.240Z,8.50
2018-05-15T10:56:00.924Z,8.23
2018-05-15T10:58:30.027Z,10.73
2018-05-15T11:00:59.034Z,10.20
2018-05-15T11:03:28.179Z,12.10
2018-05-15T11:05:56.464Z,11.70
2018-05-15T11:08:24.840Z,10.40
2018-05-15T11:10:55.420Z,10.67
2018-05-15T11:13:24.154Z,10.50
2018-05-15T11:15:52.791Z,11.33
2018-05-15T11:18:32.963Z,9.70
2018-05-15T11:21:12.453Z,8.40
2018-05-15T11:24:07.005Z,9.50
2018-05-15T11:26:34.708Z,10.20
2018-05-15T11:29:02.787Z,9.20
2018-05-15T11:31:48.946Z,9.80
2018-05-15T11:34:23.936Z,11.83
2018-05-15T11:36:52.680Z,10.60
2018-05-15T11:39:24.081Z,8.80
2018-05-15T11:41:52.682Z,8.93
2018-05-15T11:44:22.369Z,8.57
2018-05-15T11:46:52.827Z,8.53
2018-05-15T11:49:26.703Z,7.70
2018-05-15T11:52:02.833Z,8.85
2018-05-15T11:54:33.497Z,8.80
2018-05-15T11:57:08.139Z,9.50
2018-05-15T11:59:42.287Z,9.70
2018-05-15T12:02:13.432Z,10.50
2018-05-15T12:04:42.918Z,10.80
2018-05-15T12:07:12.985Z,11.85
2018-05-15T12:09:44.037Z,11.60
2018-05-15T12:12:12.676Z,11.40
2018-05-15T12:14:41.655Z,11.50
2018-05-15T12:17:10.026Z,14.50
2018-05-15T12:19:38.898Z,17.37
2018-05-15T12:22:06.486Z,15.13
2018-05-15T12:24:34.936Z,14.15
2018-05-15T12:27:02.899Z,14.67
2018-05-15T12:29:31.364Z,15.37
2018-05-15T12:31:59.207Z,15.10
2018-05-15T12:34:26.982Z,13.20
2018-05-15T12:36:54.977Z,14.60
2018-05-15T12:39:23.685Z,12.47
2018-05-15T12:41:52.342Z,10.60
2018-05-15T12:44:20.163Z,15.30
2018-05-15T12:46:48.726Z,33.30
2018-05-15T12:49:16.356Z,23.70
2018-05-15T12:51:44.418Z,14.23
2018-05-15T12:54:12.434Z,12.80
2018-05-15T12:56:41.808Z,13.50
2018-05-15T12:59:12.264Z,12.67
2018-05-15T13:01:44.382Z,13.07
2018-05-15T13:04:12.521Z,13.30
2018-05-15T13:06:41.600Z,10.77
2018-05-15T13:09:09.948Z,12.13
2018-05-15T13:11:38.475Z,10.70
2018-05-15T13:14:07.846Z,13.13
2018-05-15T13:16:36.164Z,14.03
2018-05-15T13:19:05.420Z,12.70
2018-05-15T13:21:33.570Z,13.70
2018-05-15T13:24:02.321Z,14.80
2018-05-15T13:26:30.978Z,13.30
2018-05-15T13:28:59.585Z,12.00
2018-05-15T13:31:28.453Z,13.53
2018-05-15T13:33:56.618Z,11.13
2018-05-15T13:36:24.668Z,11.50
2018-05-15T13:38:53.243Z,9.93
2018-05-15T13:41:21.882Z,8.90
2018-05-15T13:43:50.137Z,8.67
2018-05-15T13:46:18.174Z,9.00
2018-05-15T13:48:46.964Z,8.47
2018-05-15T13:51:15.727Z,8.63
2018-05-15T13:53:44.374Z,8.20
2018-05-15T13:56:13.543Z,10.97
2018-05-15T13:58:42.133Z,45.60
2018-05-15T14:01:10.142Z,19.30
2018-05-15T14:03:38.438Z,13.77
2018-05-15T14:06:06.966Z,11.53
2018-05-15T14:08:35.976Z,15.00
2018-05-15T14:11:05.027Z,12.63
2018-05-15T14:13:33.825Z,11.20
2018-05-15T14:16:02.137Z,12.30
2018-05-15T14:18:30.727Z,11.30
2018-05-15T14:20:59.725Z,11.80
2018-05-15T14:23:28.518Z,12.00
2018-05-15T14:25:56.968Z,11.40
2018-05-15T14:28:25.755Z,11.53
2018-05-15T14:30:54.212Z,11.60
2018-05-15T14:33:23.765Z,12.40
2018-05-15T14:35:52.300Z,13.35
2018-05-15T14:38:21.458Z,13.90
2018-05-15T14:40:49.682Z,12.55
2018-05-15T14:43:27.097Z,13.27
2018-05-15T14:45:56.060Z,14.23
2018-05-15T14:48:24.692Z,13.93
2018-05-15T14:54:15.736Z,14.50
2018-05-15T14:57:14.075Z,14.80
2018-05-15T15:00:02.461Z,11.03
2018-05-15T15:02:52.575Z,12.10
2018-05-15T15:11:21.915Z,11.93
2018-05-15T15:23:07.565Z,10.90
2018-05-15T15:25:59.271Z,9.70
2018-05-15T15:40:17.038Z,8.77
2018-05-15T15:51:35.707Z,8.97
2018-05-15T15:54:22.075Z,10.13
2018-05-15T15:57:03.228Z,8.90
2018-05-15T16:02:38.169Z,8.77
2018-05-15T16:31:24.212Z,8.90
2018-05-15T16:36:59.443Z,9.50
2018-05-15T16:51:35.694Z,8.30
2018-05-15T16:54:23.779Z,7.80
2018-05-15T17:00:12.228Z,10.07
2018-05-15T17:03:01.378Z,10.93
2018-05-15T17:08:38.156Z,11.10
2018-05-15T17:11:20.080Z,11.20
2018-05-15T17:14:07.880Z,10.73
2018-05-15T17:41:11.076Z,14.70
2018-05-15T17:43:55.310Z,13.80
2018-05-15T17:46:37.254Z,12.23
2018-05-15T17:49:20.065Z,14.47
2018-05-15T17:57:53.160Z,13.50
2018-05-15T18:09:31.209Z,15.60
2018-05-15T18:12:16.100Z,15.87
2018-05-15T18:14:58.151Z,14.90
2018-05-15T18:17:41.305Z,13.60
2018-05-15T18:20:26.422Z,15.00
2018-05-15T18:23:07.878Z,14.60
2018-05-15T18:25:50.849Z,15.67
2018-05-15T18:28:35.399Z,15.60
2018-05-15T18:31:20.338Z,17.47
2018-05-15T18:37:06.485Z,17.73
2018-05-15T18:39:48.607Z,17.03
2018-05-15T18:42:36.201Z,17.27
2018-05-15T18:45:18.239Z,16.90
2018-05-15T18:51:07.894Z,16.50
2018-05-15T18:53:51.829Z,17.50
2018-05-15T18:59:46.464Z,17.70
2018-05-15T19:02:27.647Z,16.20
2018-05-15T19:07:55.414Z,15.90
2018-05-15T19:10:45.947Z,16.63
2018-05-15T19:13:29.693Z,14.53
2018-05-15T19:16:11.296Z,13.20
2018-05-15T19:18:52.693Z,10.60
2018-05-15T19:21:34.034Z,12.50
2018-05-15T19:24:16.029Z,11.20
2018-05-15T19:26:56.384Z,11.40
2018-05-15T19:29:29.503Z,11.27
2018-05-15T19:32:15.318Z,11.23
2018-05-15T19:35:05.140Z,10.23
2018-05-15T19:37:46.913Z,9.73
2018-05-15T19:40:26.484Z,8.77
2018-05-15T19:42:58.794Z,9.73
2018-05-15T19:45:42.093Z,9.30
2018-05-15T19:48:34.621Z,10.03
2018-05-15T19:51:17.922Z,9.83
2018-05-15T19:53:59.130Z,10.20
2018-05-15T19:56:46.476Z,9.67
2018-05-15T19:59:27.547Z,9.03
2018-05-15T20:05:00.660Z,9.93
2018-05-15T20:07:43.657Z,10.07
2018-05-15T20:16:01.172Z,10.03
2018-05-15T20:24:38.049Z,12.00
2018-05-15T20:33:14.589Z,10.93
2018-05-15T20:44:25.787Z,11.87
2018-05-15T20:50:01.487Z,12.33
2018-05-15T20:52:47.441Z,12.77
2018-05-15T20:55:33.578Z,14.90
2018-05-15T20:58:17.144Z,13.43
2018-05-15T21:03:37.199Z,16.10
2018-05-15T21:06:18.952Z,16.17
2018-05-15T21:11:42.104Z,19.33
2018-05-15T21:14:24.282Z,16.80
2018-05-15T21:17:17.695Z,15.10
2018-05-15T21:20:03.195Z,18.83
2018-05-15T21:22:46.631Z,20.17
2018-05-15T21:25:28.913Z,16.37
2018-05-15T21:28:12.234Z,17.53
2018-05-15T21:30:53.135Z,20.60
2018-05-15T21:38:59.265Z,21.07
2018-05-15T21:41:29.265Z,21.97
2018-05-15T21:44:02.149Z,21.20
2018-05-15T21:46:44.189Z,23.80
2018-05-15T21:49:25.470Z,22.93
2018-05-15T21:55:01.390Z,21.23
2018-05-15T21:57:45.454Z,20.27
2018-05-15T22:00:26.537Z,21.87
2018-05-15T22:03:10.445Z,22.20
2018-05-15T22:05:53.568Z,22.23
2018-05-15T22:08:35.943Z,20.40
2018-05-15T22:11:17.535Z,22.73
2018-05-15T22:14:06.308Z,22.37
2018-05-15T22:16:48.450Z,23.07
2018-05-15T22:19:30.820Z,22.67
2018-05-15T22:22:12.395Z,22.40
2018-05-15T22:24:57.637Z,22.10
2018-05-15T22:27:28.133Z,24.17
2018-05-15T22:30:10.251Z,21.70
2018-05-15T22:35:32.235Z,24.13
2018-05-15T22:38:13.238Z,21.30
2018-05-15T22:40:55.125Z,23.37
2018-05-15T22:43:36.282Z,24.20
2018-05-15T22:46:19.596Z,24.87
2018-05-15T22:49:01.326Z,21.97
2018-05-15T22:51:41.381Z,24.03
2018-05-15T22:54:24.319Z,19.70
2018-05-15T22:57:06.593Z,25.10
2018-05-15T22:59:48.608Z,22.17
2018-05-15T23:02:28.837Z,25.60
2018-05-15T23:05:11.050Z,24.53
2018-05-15T23:10:31.373Z,23.73
2018-05-15T23:18:36.337Z,21.43
2018-05-15T23:21:27.695Z,22.47
2018-05-15T23:24:09.209Z,22.60
2018-05-15T23:26:51.334Z,25.00
2018-05-15T23:29:32.681Z,22.60
2018-05-15T23:32:13.863Z,22.80
2018-05-15T23:34:53.557Z,23.00
2018-05-15T23:37:34.628Z,24.63
2018-05-15T23:40:13.877Z,24.70
2018-05-15T23:42:55.161Z,23.00
2018-05-15T23:45:35.809Z,23.70
2018-05-15T23:48:17.045Z,25.30
2018-05-15T23:50:57.046Z,25.23
2018-05-15T23:53:36.936Z,23.60
2018-05-15T23:56:18.386Z,25.80
2018-05-15T23:58:57.945Z,25.40
